sensor_id;sensor_type;location;lat;lon;timestamp;pressure;altitude;pressure_sealevel;temperature;humidity
17072;BME280;7731;50.720;6.912;2023-03-14T00:02:02;97724.31;;;10.59;100.00
17072;BME280;7731;50.720;6.912;2023-03-14T00:04:33;97735.94;;;10.44;100.00
17072;BME280;7731;50.720;6.912;2023-03-14T00:07:05;97751.91;;;10.57;100.00
17072;BME280;7731;50.720;6.912;2023-03-14T00:09:35;97774.88;;;10.59;100.00
17072;BME280;7731;50.720;6.912;2023-03-14T00:12:09;97787.03;;;10.57;100.00
17072;BME280;7731;50.720;6.912;2023-03-14T00:14:41;97785.28;;;10.67;100.00
17072;BME280;7731;50.720;6.912;2023-03-14T00:17:11;97778.13;;;10.70;100.00
17072;BME280;7731;50.720;6.912;2023-03-14T00:19:41;97756.22;;;10.76;100.00
17072;BME280;7731;50.720;6.912;2023-03-14T00:22:14;97751.88;;;10.86;100.00
17072;BME280;7731;50.720;6.912;2023-03-14T00:24:46;97779.34;;;10.86;100.00
17072;BME280;7731;50.720;6.912;2023-03-14T00:27:16;97780.97;;;10.97;100.00
17072;BME280;7731;50.720;6.912;2023-03-14T00:29:49;97773.78;;;10.90;100.00
17072;BME280;7731;50.720;6.912;2023-03-14T00:32:19;97764.06;;;10.84;100.00
17072;BME280;7731;50.720;6.912;2023-03-14T00:34:49;97757.84;;;10.77;100.00
17072;BME280;7731;50.720;6.912;2023-03-14T00:37:22;97758.66;;;10.68;100.00
17072;BME280;7731;50.720;6.912;2023-03-14T00:39:52;97760.94;;;10.51;100.00
17072;BME280;7731;50.720;6.912;2023-03-14T00:42:25;97754.88;;;10.52;100.00
17072;BME280;7731;50.720;6.912;2023-03-14T00:44:58;97749.47;;;10.56;100.00
17072;BME280;7731;50.720;6.912;2023-03-14T00:47:29;97758.66;;;10.58;100.00
17072;BME280;7731;50.720;6.912;2023-03-14T00:49:59;97760.53;;;10.56;100.00
17072;BME280;7731;50.720;6.912;2023-03-14T00:52:32;97773.50;;;10.54;100.00
17072;BME280;7731;50.720;6.912;2023-03-14T00:55:06;97776.47;;;10.50;100.00
17072;BME280;7731;50.720;6.912;2023-03-14T00:57:36;97781.06;;;10.46;100.00
17072;BME280;7731;50.720;6.912;2023-03-14T01:00:09;97781.88;;;10.37;100.00
17072;BME280;7731;50.720;6.912;2023-03-14T01:02:40;97783.69;;;10.25;100.00
17072;BME280;7731;50.720;6.912;2023-03-14T01:05:12;97786.03;;;10.38;100.00
17072;BME280;7731;50.720;6.912;2023-03-14T01:07:45;97776.94;;;10.14;100.00
17072;BME280;7731;50.720;6.912;2023-03-14T01:10:15;97784.63;;;10.24;100.00
17072;BME280;7731;50.720;6.912;2023-03-14T01:12:45;97782.38;;;10.31;100.00
17072;BME280;7731;50.720;6.912;2023-03-14T01:15:16;97785.63;;;10.33;100.00
17072;BME280;7731;50.720;6.912;2023-03-14T01:17:46;97778.97;;;10.21;100.00
17072;BME280;7731;50.720;6.912;2023-03-14T01:20:18;97782.13;;;10.34;100.00
17072;BME280;7731;50.720;6.912;2023-03-14T01:22:53;97771.53;;;10.17;100.00
17072;BME280;7731;50.720;6.912;2023-03-14T01:25:24;97764.75;;;10.16;100.00
17072;BME280;7731;50.720;6.912;2023-03-14T01:27:54;97750.19;;;10.17;100.00
17072;BME280;7731;50.720;6.912;2023-03-14T01:30:24;97768.44;;;10.24;100.00
17072;BME280;7731;50.720;6.912;2023-03-14T01:32:54;97761.97;;;10.29;100.00
17072;BME280;7731;50.720;6.912;2023-03-14T01:35:32;97763.25;;;10.04;100.00
17072;BME280;7731;50.720;6.912;2023-03-14T01:38:07;97761.53;;;10.05;100.00
17072;BME280;7731;50.720;6.912;2023-03-14T01:40:43;97756.53;;;10.13;100.00
17072;BME280;7731;50.720;6.912;2023-03-14T01:43:16;97754.56;;;10.36;100.00
17072;BME280;7731;50.720;6.912;2023-03-14T01:46:20;97759.84;;;10.44;100.00
17072;BME280;7731;50.720;6.912;2023-03-14T01:49:03;97767.50;;;10.25;100.00
17072;BME280;7731;50.720;6.912;2023-03-14T01:51:44;97775.47;;;10.22;100.00
17072;BME280;7731;50.720;6.912;2023-03-14T01:54:23;97767.84;;;10.10;100.00
17072;BME280;7731;50.720;6.912;2023-03-14T01:57:05;97755.81;;;9.91;100.00
17072;BME280;7731;50.720;6.912;2023-03-14T01:59:38;97769.47;;;10.01;100.00
17072;BME280;7731;50.720;6.912;2023-03-14T02:02:13;97752.03;;;9.95;100.00
17072;BME280;7731;50.720;6.912;2023-03-14T02:04:45;97753.03;;;9.73;100.00
17072;BME280;7731;50.720;6.912;2023-03-14T02:07:19;97757.28;;;9.32;100.00
17072;BME280;7731;50.720;6.912;2023-03-14T02:09:54;97751.78;;;9.37;100.00
17072;BME280;7731;50.720;6.912;2023-03-14T02:12:26;97752.78;;;9.45;100.00
17072;BME280;7731;50.720;6.912;2023-03-14T02:14:57;97747.63;;;9.36;100.00
17072;BME280;7731;50.720;6.912;2023-03-14T02:17:27;97750.72;;;9.39;100.00
17072;BME280;7731;50.720;6.912;2023-03-14T02:20:24;97757.91;;;9.45;100.00
17072;BME280;7731;50.720;6.912;2023-03-14T02:22:59;97749.03;;;9.90;100.00
17072;BME280;7731;50.720;6.912;2023-03-14T02:25:45;97741.00;;;10.14;100.00
17072;BME280;7731;50.720;6.912;2023-03-14T02:28:20;97741.78;;;10.05;100.00
17072;BME280;7731;50.720;6.912;2023-03-14T02:30:52;97734.75;;;9.97;100.00
17072;BME280;7731;50.720;6.912;2023-03-14T02:33:23;97720.97;;;9.89;100.00
17072;BME280;7731;50.720;6.912;2023-03-14T02:35:58;97709.22;;;9.86;100.00
17072;BME280;7731;50.720;6.912;2023-03-14T02:38:35;97719.19;;;9.79;100.00
17072;BME280;7731;50.720;6.912;2023-03-14T02:41:08;97704.16;;;9.65;100.00
17072;BME280;7731;50.720;6.912;2023-03-14T02:43:41;97696.06;;;9.60;100.00
17072;BME280;7731;50.720;6.912;2023-03-14T02:46:14;97695.69;;;9.74;100.00
17072;BME280;7731;50.720;6.912;2023-03-14T02:48:51;97694.72;;;9.65;100.00
17072;BME280;7731;50.720;6.912;2023-03-14T02:51:28;97697.66;;;9.61;100.00
17072;BME280;7731;50.720;6.912;2023-03-14T02:53:59;97684.97;;;9.59;100.00
17072;BME280;7731;50.720;6.912;2023-03-14T02:56:30;97671.22;;;9.60;100.00
17072;BME280;7731;50.720;6.912;2023-03-14T02:59:11;97681.63;;;9.59;100.00
17072;BME280;7731;50.720;6.912;2023-03-14T03:01:41;97687.94;;;9.55;100.00
17072;BME280;7731;50.720;6.912;2023-03-14T03:04:11;97675.78;;;9.47;100.00
17072;BME280;7731;50.720;6.912;2023-03-14T03:06:41;97660.69;;;9.54;100.00
17072;BME280;7731;50.720;6.912;2023-03-14T03:09:12;97662.34;;;9.64;100.00
17072;BME280;7731;50.720;6.912;2023-03-14T03:11:42;97666.81;;;9.72;100.00
17072;BME280;7731;50.720;6.912;2023-03-14T03:14:15;97668.56;;;9.72;100.00
17072;BME280;7731;50.720;6.912;2023-03-14T03:16:45;97665.44;;;9.68;100.00
17072;BME280;7731;50.720;6.912;2023-03-14T03:19:15;97669.34;;;9.62;100.00
17072;BME280;7731;50.720;6.912;2023-03-14T03:21:49;97659.53;;;9.77;100.00
17072;BME280;7731;50.720;6.912;2023-03-14T03:24:19;97654.41;;;9.77;100.00
17072;BME280;7731;50.720;6.912;2023-03-14T03:26:49;97652.63;;;9.68;100.00
17072;BME280;7731;50.720;6.912;2023-03-14T03:29:25;97661.00;;;9.70;100.00
17072;BME280;7731;50.720;6.912;2023-03-14T03:31:55;97652.09;;;9.74;100.00
17072;BME280;7731;50.720;6.912;2023-03-14T03:34:27;97660.97;;;9.60;100.00
17072;BME280;7731;50.720;6.912;2023-03-14T03:36:57;97649.94;;;9.70;100.00
17072;BME280;7731;50.720;6.912;2023-03-14T03:39:28;97652.91;;;9.65;100.00
17072;BME280;7731;50.720;6.912;2023-03-14T03:41:58;97645.75;;;9.69;100.00
17072;BME280;7731;50.720;6.912;2023-03-14T03:44:30;97636.31;;;9.69;100.00
17072;BME280;7731;50.720;6.912;2023-03-14T03:47:01;97636.16;;;9.61;100.00
17072;BME280;7731;50.720;6.912;2023-03-14T03:49:33;97644.28;;;9.66;100.00
17072;BME280;7731;50.720;6.912;2023-03-14T03:52:03;97651.13;;;9.56;100.00
17072;BME280;7731;50.720;6.912;2023-03-14T03:54:34;97648.81;;;9.53;100.00
17072;BME280;7731;50.720;6.912;2023-03-14T03:57:04;97644.03;;;9.38;100.00
17072;BME280;7731;50.720;6.912;2023-03-14T03:59:37;97645.81;;;9.47;100.00
17072;BME280;7731;50.720;6.912;2023-03-14T04:02:08;97640.94;;;9.44;100.00
17072;BME280;7731;50.720;6.912;2023-03-14T04:04:39;97638.25;;;9.46;100.00
17072;BME280;7731;50.720;6.912;2023-03-14T04:07:11;97632.72;;;9.41;100.00
17072;BME280;7731;50.720;6.912;2023-03-14T04:09:43;97625.81;;;9.32;100.00
17072;BME280;7731;50.720;6.912;2023-03-14T04:12:13;97631.22;;;9.38;100.00
17072;BME280;7731;50.720;6.912;2023-03-14T04:14:46;97637.19;;;9.39;100.00
17072;BME280;7731;50.720;6.912;2023-03-14T04:17:16;97637.72;;;9.42;100.00
17072;BME280;7731;50.720;6.912;2023-03-14T04:19:49;97640.47;;;9.51;100.00
17072;BME280;7731;50.720;6.912;2023-03-14T04:22:21;97649.28;;;9.37;100.00
17072;BME280;7731;50.720;6.912;2023-03-14T04:24:51;97641.44;;;9.28;100.00
17072;BME280;7731;50.720;6.912;2023-03-14T04:27:21;97636.41;;;9.48;100.00
17072;BME280;7731;50.720;6.912;2023-03-14T04:29:54;97629.16;;;9.63;100.00
17072;BME280;7731;50.720;6.912;2023-03-14T04:32:24;97634.56;;;9.79;100.00
17072;BME280;7731;50.720;6.912;2023-03-14T04:34:54;97626.94;;;9.48;100.00
17072;BME280;7731;50.720;6.912;2023-03-14T04:37:24;97624.81;;;9.54;100.00
17072;BME280;7731;50.720;6.912;2023-03-14T04:39:55;97627.00;;;9.68;100.00
17072;BME280;7731;50.720;6.912;2023-03-14T04:42:25;97626.88;;;9.70;100.00
17072;BME280;7731;50.720;6.912;2023-03-14T04:44:57;97628.84;;;9.56;100.00
17072;BME280;7731;50.720;6.912;2023-03-14T04:47:28;97629.63;;;9.47;100.00
17072;BME280;7731;50.720;6.912;2023-03-14T04:49:59;97623.97;;;9.43;100.00
17072;BME280;7731;50.720;6.912;2023-03-14T04:52:29;97620.72;;;9.41;100.00
17072;BME280;7731;50.720;6.912;2023-03-14T04:54:59;97620.91;;;9.59;100.00
17072;BME280;7731;50.720;6.912;2023-03-14T04:57:31;97612.00;;;9.54;100.00
17072;BME280;7731;50.720;6.912;2023-03-14T05:00:09;97605.78;;;9.46;100.00
17072;BME280;7731;50.720;6.912;2023-03-14T05:02:39;97603.81;;;9.29;100.00
17072;BME280;7731;50.720;6.912;2023-03-14T05:05:10;97596.41;;;9.26;100.00
17072;BME280;7731;50.720;6.912;2023-03-14T05:07:43;97596.38;;;9.16;100.00
17072;BME280;7731;50.720;6.912;2023-03-14T05:10:13;97583.16;;;9.21;100.00
17072;BME280;7731;50.720;6.912;2023-03-14T05:12:44;97580.75;;;9.29;100.00
17072;BME280;7731;50.720;6.912;2023-03-14T05:15:16;97577.25;;;9.30;100.00
17072;BME280;7731;50.720;6.912;2023-03-14T05:17:46;97575.63;;;9.29;100.00
17072;BME280;7731;50.720;6.912;2023-03-14T05:20:17;97580.88;;;9.27;100.00
17072;BME280;7731;50.720;6.912;2023-03-14T05:22:47;97578.31;;;9.18;100.00
17072;BME280;7731;50.720;6.912;2023-03-14T05:25:17;97578.56;;;9.05;100.00
17072;BME280;7731;50.720;6.912;2023-03-14T05:27:48;97572.78;;;9.13;100.00
17072;BME280;7731;50.720;6.912;2023-03-14T05:30:21;97575.59;;;9.09;100.00
17072;BME280;7731;50.720;6.912;2023-03-14T05:32:51;97568.13;;;8.97;100.00
17072;BME280;7731;50.720;6.912;2023-03-14T05:35:21;97577.59;;;9.06;100.00
17072;BME280;7731;50.720;6.912;2023-03-14T05:37:52;97577.28;;;8.89;100.00
17072;BME280;7731;50.720;6.912;2023-03-14T05:40:22;97565.28;;;8.90;100.00
17072;BME280;7731;50.720;6.912;2023-03-14T05:42:52;97575.94;;;8.95;100.00
17072;BME280;7731;50.720;6.912;2023-03-14T05:45:25;97576.13;;;9.03;100.00
17072;BME280;7731;50.720;6.912;2023-03-14T05:47:56;97578.22;;;8.98;100.00
17072;BME280;7731;50.720;6.912;2023-03-14T05:50:26;97569.38;;;9.02;100.00
17072;BME280;7731;50.720;6.912;2023-03-14T05:52:57;97576.53;;;9.08;100.00
17072;BME280;7731;50.720;6.912;2023-03-14T05:55:27;97565.34;;;9.09;100.00
17072;BME280;7731;50.720;6.912;2023-03-14T05:57:57;97563.97;;;9.05;100.00
17072;BME280;7731;50.720;6.912;2023-03-14T06:00:40;97552.38;;;9.01;100.00
17072;BME280;7731;50.720;6.912;2023-03-14T06:03:11;97554.31;;;9.19;100.00
17072;BME280;7731;50.720;6.912;2023-03-14T06:05:42;97559.97;;;9.13;100.00
17072;BME280;7731;50.720;6.912;2023-03-14T06:08:12;97553.75;;;9.05;100.00
17072;BME280;7731;50.720;6.912;2023-03-14T06:10:44;97551.59;;;9.10;100.00
17072;BME280;7731;50.720;6.912;2023-03-14T06:13:17;97548.09;;;9.21;100.00
17072;BME280;7731;50.720;6.912;2023-03-14T06:15:51;97553.75;;;9.15;100.00
17072;BME280;7731;50.720;6.912;2023-03-14T06:18:24;97555.91;;;9.20;100.00
17072;BME280;7731;50.720;6.912;2023-03-14T06:20:56;97553.22;;;9.11;100.00
17072;BME280;7731;50.720;6.912;2023-03-14T06:23:29;97554.78;;;9.43;100.00
17072;BME280;7731;50.720;6.912;2023-03-14T06:25:59;97549.91;;;9.40;100.00
17072;BME280;7731;50.720;6.912;2023-03-14T06:28:31;97546.78;;;9.37;100.00
17072;BME280;7731;50.720;6.912;2023-03-14T06:31:05;97544.66;;;9.42;100.00
17072;BME280;7731;50.720;6.912;2023-03-14T06:33:35;97547.88;;;9.34;100.00
17072;BME280;7731;50.720;6.912;2023-03-14T06:36:07;97543.19;;;9.49;100.00
17072;BME280;7731;50.720;6.912;2023-03-14T06:38:38;97550.31;;;9.45;100.00
17072;BME280;7731;50.720;6.912;2023-03-14T06:41:08;97547.50;;;9.48;100.00
17072;BME280;7731;50.720;6.912;2023-03-14T06:43:38;97544.13;;;9.58;100.00
17072;BME280;7731;50.720;6.912;2023-03-14T06:46:14;97544.41;;;9.74;100.00
17072;BME280;7731;50.720;6.912;2023-03-14T06:48:45;97537.94;;;9.90;100.00
17072;BME280;7731;50.720;6.912;2023-03-14T06:51:15;97546.31;;;9.92;100.00
17072;BME280;7731;50.720;6.912;2023-03-14T06:53:45;97546.84;;;9.86;100.00
17072;BME280;7731;50.720;6.912;2023-03-14T06:56:16;97551.72;;;9.98;100.00
17072;BME280;7731;50.720;6.912;2023-03-14T06:58:46;97554.13;;;10.10;100.00
17072;BME280;7731;50.720;6.912;2023-03-14T07:01:25;97555.06;;;9.79;100.00
17072;BME280;7731;50.720;6.912;2023-03-14T07:03:56;97559.13;;;9.82;100.00
17072;BME280;7731;50.720;6.912;2023-03-14T07:06:27;97555.50;;;9.94;100.00
17072;BME280;7731;50.720;6.912;2023-03-14T07:08:57;97561.16;;;10.08;100.00
17072;BME280;7731;50.720;6.912;2023-03-14T07:11:30;97558.69;;;10.26;100.00
17072;BME280;7731;50.720;6.912;2023-03-14T07:14:00;97559.38;;;10.38;100.00
17072;BME280;7731;50.720;6.912;2023-03-14T07:16:33;97566.94;;;10.10;100.00
17072;BME280;7731;50.720;6.912;2023-03-14T07:19:03;97560.47;;;10.35;100.00
17072;BME280;7731;50.720;6.912;2023-03-14T07:21:33;97556.81;;;10.28;100.00
17072;BME280;7731;50.720;6.912;2023-03-14T07:24:06;97561.66;;;10.21;100.00
17072;BME280;7731;50.720;6.912;2023-03-14T07:26:36;97564.38;;;10.10;100.00
17072;BME280;7731;50.720;6.912;2023-03-14T07:29:06;97564.63;;;10.16;100.00
17072;BME280;7731;50.720;6.912;2023-03-14T07:31:39;97567.09;;;10.08;100.00
17072;BME280;7731;50.720;6.912;2023-03-14T07:34:10;97573.44;;;10.33;100.00
17072;BME280;7731;50.720;6.912;2023-03-14T07:36:40;97574.63;;;10.39;100.00
17072;BME280;7731;50.720;6.912;2023-03-14T07:39:14;97578.31;;;10.84;100.00
17072;BME280;7731;50.720;6.912;2023-03-14T07:41:44;97584.38;;;10.93;100.00
17072;BME280;7731;50.720;6.912;2023-03-14T07:44:16;97589.03;;;11.07;100.00
17072;BME280;7731;50.720;6.912;2023-03-14T07:46:49;97587.59;;;11.22;100.00
17072;BME280;7731;50.720;6.912;2023-03-14T07:49:19;97591.59;;;11.35;100.00
17072;BME280;7731;50.720;6.912;2023-03-14T07:51:49;97587.88;;;11.75;100.00
17072;BME280;7731;50.720;6.912;2023-03-14T07:54:20;97583.31;;;13.10;100.00
17072;BME280;7731;50.720;6.912;2023-03-14T07:56:50;97598.94;;;13.08;100.00
17072;BME280;7731;50.720;6.912;2023-03-14T07:59:23;97597.38;;;13.58;100.00
17072;BME280;7731;50.720;6.912;2023-03-14T08:01:56;97596.63;;;13.99;98.27
17072;BME280;7731;50.720;6.912;2023-03-14T08:04:26;97602.00;;;13.38;100.00
17072;BME280;7731;50.720;6.912;2023-03-14T08:06:57;97607.72;;;13.58;100.00
17072;BME280;7731;50.720;6.912;2023-03-14T08:09:27;97600.78;;;13.67;98.70
17072;BME280;7731;50.720;6.912;2023-03-14T08:11:57;97595.34;;;13.27;100.00
17072;BME280;7731;50.720;6.912;2023-03-14T08:14:27;97585.19;;;14.09;97.28
17072;BME280;7731;50.720;6.912;2023-03-14T08:17:00;97586.88;;;15.31;84.60
17072;BME280;7731;50.720;6.912;2023-03-14T08:19:30;97597.41;;;14.90;88.43
17072;BME280;7731;50.720;6.912;2023-03-14T08:22:00;97592.13;;;14.50;88.82
17072;BME280;7731;50.720;6.912;2023-03-14T08:24:31;97611.84;;;14.10;94.15
17072;BME280;7731;50.720;6.912;2023-03-14T08:27:01;97607.13;;;14.38;90.89
17072;BME280;7731;50.720;6.912;2023-03-14T08:29:34;97615.00;;;12.67;100.00
17072;BME280;7731;50.720;6.912;2023-03-14T08:32:07;97630.84;;;12.55;100.00
17072;BME280;7731;50.720;6.912;2023-03-14T08:34:37;97617.25;;;12.44;100.00
17072;BME280;7731;50.720;6.912;2023-03-14T08:37:08;97617.88;;;12.64;100.00
17072;BME280;7731;50.720;6.912;2023-03-14T08:39:54;97618.75;;;12.29;100.00
17072;BME280;7731;50.720;6.912;2023-03-14T08:42:24;97624.56;;;12.75;100.00
17072;BME280;7731;50.720;6.912;2023-03-14T08:44:55;97621.81;;;12.50;100.00
17072;BME280;7731;50.720;6.912;2023-03-14T08:47:30;97624.84;;;12.10;100.00
17072;BME280;7731;50.720;6.912;2023-03-14T08:50:00;97627.72;;;12.43;100.00
17072;BME280;7731;50.720;6.912;2023-03-14T08:52:32;97626.03;;;12.33;100.00
17072;BME280;7731;50.720;6.912;2023-03-14T08:55:02;97632.22;;;12.23;100.00
17072;BME280;7731;50.720;6.912;2023-03-14T08:57:33;97629.25;;;11.82;100.00
17072;BME280;7731;50.720;6.912;2023-03-14T09:00:05;97641.13;;;11.92;100.00
17072;BME280;7731;50.720;6.912;2023-03-14T09:02:42;97657.00;;;11.22;100.00
17072;BME280;7731;50.720;6.912;2023-03-14T09:05:13;97666.91;;;11.17;100.00
17072;BME280;7731;50.720;6.912;2023-03-14T09:07:44;97664.91;;;11.39;100.00
17072;BME280;7731;50.720;6.912;2023-03-14T09:10:14;97666.34;;;11.23;100.00
17072;BME280;7731;50.720;6.912;2023-03-14T09:12:47;97668.81;;;11.05;100.00
17072;BME280;7731;50.720;6.912;2023-03-14T09:15:19;97669.50;;;11.07;100.00
17072;BME280;7731;50.720;6.912;2023-03-14T09:17:51;97672.09;;;10.98;100.00
17072;BME280;7731;50.720;6.912;2023-03-14T09:20:22;97673.38;;;11.21;100.00
17072;BME280;7731;50.720;6.912;2023-03-14T09:22:52;97667.06;;;11.43;100.00
17072;BME280;7731;50.720;6.912;2023-03-14T09:25:22;97667.41;;;11.31;100.00
17072;BME280;7731;50.720;6.912;2023-03-14T09:27:54;97673.09;;;11.24;100.00
17072;BME280;7731;50.720;6.912;2023-03-14T09:30:24;97679.25;;;11.41;100.00
17072;BME280;7731;50.720;6.912;2023-03-14T09:32:57;97689.16;;;10.89;100.00
17072;BME280;7731;50.720;6.912;2023-03-14T09:35:28;97688.84;;;11.02;100.00
17072;BME280;7731;50.720;6.912;2023-03-14T09:37:58;97706.97;;;11.00;100.00
17072;BME280;7731;50.720;6.912;2023-03-14T09:40:40;97706.72;;;10.94;100.00
17072;BME280;7731;50.720;6.912;2023-03-14T09:43:14;97756.22;;;10.86;100.00
17072;BME280;7731;50.720;6.912;2023-03-14T09:45:48;97802.69;;;10.03;100.00
17072;BME280;7731;50.720;6.912;2023-03-14T09:48:27;97826.72;;;9.08;100.00
17072;BME280;7731;50.720;6.912;2023-03-14T09:51:04;97847.00;;;8.67;100.00
17072;BME280;7731;50.720;6.912;2023-03-14T09:53:40;97848.06;;;8.65;100.00
17072;BME280;7731;50.720;6.912;2023-03-14T09:56:17;97867.28;;;8.25;100.00
17072;BME280;7731;50.720;6.912;2023-03-14T09:58:55;97890.06;;;8.05;100.00
17072;BME280;7731;50.720;6.912;2023-03-14T10:01:28;97899.22;;;7.97;100.00
17072;BME280;7731;50.720;6.912;2023-03-14T10:04:09;97902.00;;;7.82;100.00
17072;BME280;7731;50.720;6.912;2023-03-14T10:06:43;97923.56;;;7.67;100.00
17072;BME280;7731;50.720;6.912;2023-03-14T10:09:21;97934.03;;;7.75;100.00
17072;BME280;7731;50.720;6.912;2023-03-14T10:11:57;97954.59;;;7.74;100.00
17072;BME280;7731;50.720;6.912;2023-03-14T10:14:44;97956.69;;;7.68;100.00
17072;BME280;7731;50.720;6.912;2023-03-14T10:17:15;97970.13;;;7.95;100.00
17072;BME280;7731;50.720;6.912;2023-03-14T10:19:56;97970.69;;;7.98;100.00
17072;BME280;7731;50.720;6.912;2023-03-14T10:22:31;97980.75;;;8.24;100.00
17072;BME280;7731;50.720;6.912;2023-03-14T10:25:05;97988.75;;;8.19;100.00
17072;BME280;7731;50.720;6.912;2023-03-14T10:27:36;98009.38;;;8.40;100.00
17072;BME280;7731;50.720;6.912;2023-03-14T10:30:27;98010.00;;;8.44;100.00
17072;BME280;7731;50.720;6.912;2023-03-14T10:33:09;98011.13;;;7.93;100.00
17072;BME280;7731;50.720;6.912;2023-03-14T10:35:44;98013.69;;;7.93;100.00
17072;BME280;7731;50.720;6.912;2023-03-14T10:38:17;98032.47;;;7.81;100.00
17072;BME280;7731;50.720;6.912;2023-03-14T10:40:50;98029.84;;;7.94;100.00
17072;BME280;7731;50.720;6.912;2023-03-14T10:43:26;98032.94;;;7.75;100.00
17072;BME280;7731;50.720;6.912;2023-03-14T10:46:07;98046.03;;;8.05;100.00
17072;BME280;7731;50.720;6.912;2023-03-14T10:48:39;98053.09;;;7.66;100.00
17072;BME280;7731;50.720;6.912;2023-03-14T10:51:20;98063.63;;;7.86;100.00
17072;BME280;7731;50.720;6.912;2023-03-14T10:54:02;98074.69;;;7.86;100.00
17072;BME280;7731;50.720;6.912;2023-03-14T10:56:35;98070.28;;;7.89;100.00
17072;BME280;7731;50.720;6.912;2023-03-14T10:59:13;98082.28;;;7.99;100.00
17072;BME280;7731;50.720;6.912;2023-03-14T11:01:53;98082.59;;;8.19;100.00
17072;BME280;7731;50.720;6.912;2023-03-14T11:04:48;98095.03;;;7.88;100.00
17072;BME280;7731;50.720;6.912;2023-03-14T11:07:31;98114.91;;;8.20;100.00
17072;BME280;7731;50.720;6.912;2023-03-14T11:10:18;98104.97;;;8.39;100.00
17072;BME280;7731;50.720;6.912;2023-03-14T11:13:01;98114.88;;;8.91;100.00
17072;BME280;7731;50.720;6.912;2023-03-14T11:15:38;98126.13;;;8.30;100.00
17072;BME280;7731;50.720;6.912;2023-03-14T11:21:43;98131.28;;;8.88;100.00
17072;BME280;7731;50.720;6.912;2023-03-14T11:24:56;98137.44;;;8.63;100.00
17072;BME280;7731;50.720;6.912;2023-03-14T11:27:41;98138.22;;;8.64;100.00
17072;BME280;7731;50.720;6.912;2023-03-14T11:30:19;98158.59;;;8.76;100.00
17072;BME280;7731;50.720;6.912;2023-03-14T11:33:03;98162.41;;;9.06;100.00
17072;BME280;7731;50.720;6.912;2023-03-14T11:35:47;98153.50;;;8.76;100.00
17072;BME280;7731;50.720;6.912;2023-03-14T11:38:30;98159.38;;;9.13;100.00
17072;BME280;7731;50.720;6.912;2023-03-14T11:41:13;98151.88;;;8.75;100.00
17072;BME280;7731;50.720;6.912;2023-03-14T11:43:48;98173.13;;;9.57;100.00
17072;BME280;7731;50.720;6.912;2023-03-14T11:46:26;98175.19;;;9.52;100.00
17072;BME280;7731;50.720;6.912;2023-03-14T11:49:03;98177.16;;;10.37;100.00
17072;BME280;7731;50.720;6.912;2023-03-14T11:51:42;98186.03;;;10.33;100.00
17072;BME280;7731;50.720;6.912;2023-03-14T11:54:20;98189.13;;;10.48;100.00
17072;BME280;7731;50.720;6.912;2023-03-14T11:57:01;98197.22;;;10.85;100.00
17072;BME280;7731;50.720;6.912;2023-03-14T11:59:41;98209.50;;;10.06;100.00
17072;BME280;7731;50.720;6.912;2023-03-14T12:02:24;98216.78;;;10.44;100.00
17072;BME280;7731;50.720;6.912;2023-03-14T12:05:25;98225.03;;;10.80;100.00
17072;BME280;7731;50.720;6.912;2023-03-14T12:08:37;98239.22;;;10.96;100.00
17072;BME280;7731;50.720;6.912;2023-03-14T12:14:23;98323.91;;;7.55;100.00
17072;BME280;7731;50.720;6.912;2023-03-14T12:16:58;98328.31;;;6.46;100.00
17072;BME280;7731;50.720;6.912;2023-03-14T12:19:35;98354.94;;;5.98;100.00
17072;BME280;7731;50.720;6.912;2023-03-14T12:22:33;98350.41;;;6.59;100.00
17072;BME280;7731;50.720;6.912;2023-03-14T12:25:15;98366.56;;;6.46;100.00
17072;BME280;7731;50.720;6.912;2023-03-14T12:28:20;98372.31;;;6.35;100.00
17072;BME280;7731;50.720;6.912;2023-03-14T12:30:53;98388.91;;;6.42;100.00
17072;BME280;7731;50.720;6.912;2023-03-14T12:33:30;98390.09;;;6.36;100.00
17072;BME280;7731;50.720;6.912;2023-03-14T12:36:31;98395.56;;;6.30;100.00
17072;BME280;7731;50.720;6.912;2023-03-14T12:39:31;98394.50;;;6.61;100.00
17072;BME280;7731;50.720;6.912;2023-03-14T12:42:09;98402.50;;;6.84;100.00
17072;BME280;7731;50.720;6.912;2023-03-14T12:44:47;98412.97;;;7.34;100.00
17072;BME280;7731;50.720;6.912;2023-03-14T12:47:51;98428.03;;;7.39;100.00
17072;BME280;7731;50.720;6.912;2023-03-14T12:50:40;98427.75;;;7.56;100.00
17072;BME280;7731;50.720;6.912;2023-03-14T12:53:50;98441.03;;;7.48;100.00
17072;BME280;7731;50.720;6.912;2023-03-14T12:56:44;98435.50;;;7.42;100.00
17072;BME280;7731;50.720;6.912;2023-03-14T12:59:36;98438.09;;;7.27;100.00
17072;BME280;7731;50.720;6.912;2023-03-14T13:02:27;98452.44;;;7.43;100.00
17072;BME280;7731;50.720;6.912;2023-03-14T13:05:10;98458.59;;;6.71;100.00
17072;BME280;7731;50.720;6.912;2023-03-14T13:08:05;98470.09;;;7.06;100.00
17072;BME280;7731;50.720;6.912;2023-03-14T13:10:47;98477.78;;;6.91;100.00
17072;BME280;7731;50.720;6.912;2023-03-14T13:13:22;98485.69;;;7.01;100.00
17072;BME280;7731;50.720;6.912;2023-03-14T13:15:56;98485.03;;;7.12;100.00
17072;BME280;7731;50.720;6.912;2023-03-14T13:18:36;98498.94;;;6.79;100.00
17072;BME280;7731;50.720;6.912;2023-03-14T13:21:15;98502.94;;;6.40;100.00
17072;BME280;7731;50.720;6.912;2023-03-14T13:23:59;98503.88;;;6.82;100.00
17072;BME280;7731;50.720;6.912;2023-03-14T13:26:36;98516.81;;;6.65;100.00
17072;BME280;7731;50.720;6.912;2023-03-14T13:29:18;98524.91;;;6.86;100.00
17072;BME280;7731;50.720;6.912;2023-03-14T13:31:51;98530.75;;;7.02;100.00
17072;BME280;7731;50.720;6.912;2023-03-14T13:34:25;98538.63;;;7.26;100.00
17072;BME280;7731;50.720;6.912;2023-03-14T13:36:59;98545.88;;;7.05;100.00
17072;BME280;7731;50.720;6.912;2023-03-14T13:39:30;98553.28;;;7.10;100.00
17072;BME280;7731;50.720;6.912;2023-03-14T13:42:02;98562.22;;;7.44;100.00
17072;BME280;7731;50.720;6.912;2023-03-14T13:44:36;98571.00;;;7.40;100.00
17072;BME280;7731;50.720;6.912;2023-03-14T13:47:15;98575.13;;;7.28;100.00
17072;BME280;7731;50.720;6.912;2023-03-14T13:49:46;98579.41;;;7.42;100.00
17072;BME280;7731;50.720;6.912;2023-03-14T13:52:29;98597.91;;;7.46;100.00
17072;BME280;7731;50.720;6.912;2023-03-14T13:55:06;98601.97;;;7.07;100.00